createdAt,value
2019-03-23T00:00:38.832Z,74.30
2019-03-23T00:03:09.672Z,74.80
2019-03-23T00:05:40.650Z,75.20
2019-03-23T00:08:11.489Z,75.50
2019-03-23T00:10:42.414Z,75.90
2019-03-23T00:13:13.260Z,76.00
2019-03-23T00:15:44.138Z,76.10
2019-03-23T00:18:14.988Z,76.70
2019-03-23T00:20:46.059Z,77.20
2019-03-23T00:23:17.121Z,77.50
2019-03-23T00:25:48.008Z,77.90
2019-03-23T00:28:18.896Z,78.10
2019-03-23T00:30:49.803Z,78.50
2019-03-23T00:33:20.646Z,78.20
2019-03-23T00:35:51.514Z,78.20
2019-03-23T00:38:22.393Z,77.80
2019-03-23T00:40:53.274Z,78.20
2019-03-23T00:43:24.209Z,78.40
2019-03-23T00:45:56.970Z,78.70
2019-03-23T00:48:28.956Z,78.90
2019-03-23T00:50:59.805Z,79.10
2019-03-23T00:53:30.790Z,79.40
2019-03-23T00:56:01.727Z,79.30
2019-03-23T00:58:32.514Z,79.10
2019-03-23T01:01:03.386Z,78.70
2019-03-23T01:03:34.209Z,78.60
2019-03-23T01:06:05.209Z,77.80
2019-03-23T01:08:36.045Z,77.20
2019-03-23T01:11:06.539Z,76.90
2019-03-23T01:13:37.440Z,76.70
2019-03-23T01:16:08.395Z,76.60
2019-03-23T01:18:39.425Z,76.30
2019-03-23T01:21:10.391Z,76.20
2019-03-23T01:23:41.288Z,76.40
2019-03-23T01:26:12.252Z,77.40
2019-03-23T01:28:43.271Z,76.30
2019-03-23T01:31:14.189Z,76.30
2019-03-23T01:33:45.059Z,76.20
2019-03-23T01:36:15.950Z,76.10
2019-03-23T01:38:46.786Z,76.50
2019-03-23T01:41:17.742Z,77.00
2019-03-23T01:43:48.660Z,77.60
2019-03-23T01:46:21.443Z,78.00
2019-03-23T01:48:52.277Z,79.70
2019-03-23T01:51:23.197Z,79.70
2019-03-23T01:53:55.040Z,79.50
2019-03-23T01:56:26.141Z,79.50
2019-03-23T01:58:56.973Z,78.90
2019-03-23T02:01:27.855Z,77.20
2019-03-23T02:03:58.779Z,76.80
2019-03-23T02:06:29.751Z,76.40
2019-03-23T02:09:00.634Z,76.50
2019-03-23T02:11:31.606Z,77.30
2019-03-23T02:14:02.446Z,76.40
2019-03-23T02:16:33.337Z,77.70
2019-03-23T02:19:04.195Z,77.70
2019-03-23T02:21:35.059Z,77.70
2019-03-23T02:24:05.905Z,77.70
2019-03-23T02:26:36.793Z,78.00
2019-03-23T02:29:07.717Z,78.30
2019-03-23T02:31:38.719Z,78.40
2019-03-23T02:34:09.558Z,78.30
2019-03-23T02:36:40.646Z,78.20
2019-03-23T02:39:11.479Z,78.00
2019-03-23T02:41:42.397Z,78.10
2019-03-23T02:44:13.262Z,77.90
2019-03-23T02:46:44.124Z,77.90
2019-03-23T02:49:15.053Z,77.80
2019-03-23T02:51:45.911Z,78.10
2019-03-23T02:54:16.854Z,78.20
2019-03-23T02:56:47.779Z,78.40
2019-03-23T02:59:18.627Z,78.40
2019-03-23T03:01:49.521Z,78.20
2019-03-23T03:04:20.355Z,78.20
2019-03-23T03:06:51.223Z,78.40
2019-03-23T03:09:22.062Z,78.40
2019-03-23T03:11:52.923Z,78.40
2019-03-23T03:14:23.767Z,78.50
2019-03-23T03:16:54.683Z,78.30
2019-03-23T03:19:25.513Z,78.10
2019-03-23T03:21:56.406Z,78.20
2019-03-23T03:24:27.226Z,78.10
2019-03-23T03:26:58.086Z,78.00
2019-03-23T03:29:28.914Z,78.10
2019-03-23T03:31:59.867Z,78.10
2019-03-23T03:34:30.750Z,78.00
2019-03-23T03:37:01.585Z,77.90
2019-03-23T03:39:32.556Z,77.80
2019-03-23T03:42:03.397Z,77.60
2019-03-23T03:44:34.209Z,77.90
2019-03-23T03:47:05.063Z,79.10
2019-03-23T03:49:35.896Z,79.30
2019-03-23T03:52:06.771Z,80.60
2019-03-23T03:54:37.922Z,81.20
2019-03-23T03:57:08.922Z,81.50
2019-03-23T03:59:39.947Z,81.90
2019-03-23T04:02:10.809Z,80.90
2019-03-23T04:04:41.845Z,80.40
2019-03-23T04:07:12.717Z,81.00
2019-03-23T04:09:43.545Z,81.20
2019-03-23T04:12:14.406Z,81.00
2019-03-23T04:14:45.254Z,80.90
2019-03-23T04:17:16.111Z,80.70
2019-03-23T04:19:46.951Z,80.70
2019-03-23T04:22:17.856Z,80.60
2019-03-23T04:24:48.849Z,80.40
2019-03-23T04:27:19.711Z,80.40
2019-03-23T04:29:50.613Z,80.50
2019-03-23T04:32:21.473Z,80.00
2019-03-23T04:34:52.347Z,80.40
2019-03-23T04:37:23.192Z,80.30
2019-03-23T04:39:54.026Z,79.90
2019-03-23T04:42:24.962Z,79.80
2019-03-23T04:44:55.788Z,79.70
2019-03-23T04:47:26.641Z,79.50
2019-03-23T04:49:57.473Z,79.30
2019-03-23T04:52:28.333Z,78.90
2019-03-23T04:54:59.230Z,78.70
2019-03-23T04:57:30.105Z,78.40
2019-03-23T05:00:00.942Z,78.60
2019-03-23T05:02:31.974Z,78.80
2019-03-23T05:05:02.890Z,78.70
2019-03-23T05:07:33.771Z,79.80
2019-03-23T05:10:04.790Z,79.60
2019-03-23T05:12:35.726Z,79.70
2019-03-23T05:15:07.119Z,79.50
2019-03-23T05:17:38.414Z,79.70
2019-03-23T05:20:09.439Z,79.30
2019-03-23T05:22:40.437Z,79.10
2019-03-23T05:25:23.076Z,78.70
2019-03-23T05:27:56.434Z,78.60
2019-03-23T05:30:27.269Z,78.60
2019-03-23T05:32:58.128Z,78.40
2019-03-23T05:35:28.966Z,78.20
2019-03-23T05:37:59.798Z,78.30
2019-03-23T05:40:30.660Z,78.30
2019-03-23T05:43:01.511Z,78.50
2019-03-23T05:45:32.348Z,78.40
2019-03-23T05:48:03.188Z,78.50
2019-03-23T05:50:34.054Z,78.50
2019-03-23T05:53:04.882Z,78.70
2019-03-23T05:55:35.996Z,78.70
2019-03-23T05:58:06.919Z,78.60
2019-03-23T06:00:38.427Z,78.70
2019-03-23T06:03:09.245Z,78.60
2019-03-23T06:05:40.570Z,78.70
2019-03-23T06:08:11.402Z,78.60
2019-03-23T06:10:43.501Z,78.60
2019-03-23T06:13:15.433Z,78.70
2019-03-23T06:15:46.258Z,78.70
2019-03-23T06:18:17.370Z,78.50
2019-03-23T06:20:48.207Z,78.50
2019-03-23T06:23:19.061Z,78.40
2019-03-23T06:25:49.941Z,78.10
2019-03-23T06:28:20.800Z,78.00
2019-03-23T06:30:51.636Z,78.00
2019-03-23T06:33:22.558Z,78.30
2019-03-23T06:35:53.393Z,78.50
2019-03-23T06:38:24.290Z,78.90
2019-03-23T06:40:56.530Z,79.10
2019-03-23T06:43:28.555Z,79.30
2019-03-23T06:45:59.557Z,79.50
2019-03-23T06:48:30.551Z,79.60
2019-03-23T06:51:03.318Z,79.90
2019-03-23T06:53:34.066Z,79.90
2019-03-23T06:56:04.942Z,79.90
2019-03-23T06:58:35.784Z,80.20
2019-03-23T07:01:06.650Z,80.40
2019-03-23T07:03:37.631Z,80.30
2019-03-23T07:08:31.357Z,80.60
2019-03-23T07:10:52.930Z,81.50
2019-03-23T07:13:23.902Z,81.60
2019-03-23T07:15:54.878Z,81.90
2019-03-23T07:18:27.840Z,82.30
2019-03-23T07:20:58.510Z,82.90
2019-03-23T07:23:29.498Z,83.80
2019-03-23T07:26:00.463Z,84.30
2019-03-23T07:28:33.141Z,84.30
2019-03-23T07:31:04.179Z,84.50
2019-03-23T07:33:35.083Z,84.90
2019-03-23T07:36:05.928Z,84.90
2019-03-23T07:38:36.809Z,85.50
2019-03-23T07:41:08.629Z,86.00
2019-03-23T07:43:39.564Z,85.20
2019-03-23T07:46:10.418Z,85.60
2019-03-23T07:48:43.549Z,86.00
2019-03-23T07:51:14.450Z,86.20
2019-03-23T07:53:45.557Z,85.80
2019-03-23T07:56:16.515Z,85.80
2019-03-23T07:58:47.434Z,86.10
2019-03-23T08:01:18.423Z,86.60
2019-03-23T08:03:49.334Z,86.80
2019-03-23T08:06:20.204Z,86.30
2019-03-23T08:08:51.275Z,86.30
2019-03-23T08:11:22.194Z,86.30
2019-03-23T08:13:53.203Z,86.10
2019-03-23T08:16:24.086Z,86.20
2019-03-23T08:18:55.025Z,86.20
2019-03-23T08:21:25.998Z,86.20
2019-03-23T08:23:56.879Z,85.90
2019-03-23T08:26:27.793Z,86.10
2019-03-23T08:28:58.652Z,86.00
2019-03-23T08:31:30.093Z,86.20
2019-03-23T08:34:00.962Z,85.20
2019-03-23T08:36:31.947Z,84.20
2019-03-23T08:39:03.131Z,83.10
2019-03-23T08:41:34.084Z,81.80
2019-03-23T08:44:05.059Z,81.70
2019-03-23T08:46:35.955Z,82.30
2019-03-23T08:49:06.833Z,82.20
2019-03-23T08:51:37.929Z,80.80
2019-03-23T08:54:08.741Z,80.10
2019-03-23T08:56:39.699Z,80.70
2019-03-23T08:59:10.517Z,80.00
2019-03-23T09:01:42.450Z,80.40
2019-03-23T09:04:13.455Z,79.70
2019-03-23T09:06:44.312Z,80.80
2019-03-23T09:09:15.258Z,80.20
2019-03-23T09:11:46.191Z,81.30
2019-03-23T09:14:17.055Z,81.10
2019-03-23T09:16:47.952Z,80.70
2019-03-23T09:19:18.825Z,80.90
2019-03-23T09:21:50.790Z,82.60
2019-03-23T09:24:21.698Z,83.10
2019-03-23T09:26:52.554Z,83.10
2019-03-23T09:29:23.501Z,82.40
2019-03-23T09:31:54.364Z,82.80
2019-03-23T09:34:26.493Z,83.40
2019-03-23T09:36:57.337Z,83.30
2019-03-23T09:39:28.144Z,83.90
2019-03-23T09:41:58.990Z,83.90
2019-03-23T09:44:29.871Z,83.60
2019-03-23T09:47:01.732Z,83.60
2019-03-23T09:49:32.673Z,83.80
2019-03-23T09:52:03.530Z,82.70
2019-03-23T09:54:34.448Z,82.60
2019-03-23T09:57:05.334Z,83.30
2019-03-23T09:59:36.278Z,83.10
2019-03-23T10:02:07.130Z,81.90
2019-03-23T10:04:38.159Z,82.00
2019-03-23T10:07:09.046Z,81.50
2019-03-23T10:09:40.168Z,81.20
2019-03-23T10:12:11.188Z,81.90
2019-03-23T10:14:42.030Z,82.70
2019-03-23T10:17:12.939Z,81.70
2019-03-23T10:19:43.884Z,81.50
2019-03-23T10:22:14.751Z,80.60
2019-03-23T10:24:45.610Z,80.60
2019-03-23T10:27:16.500Z,80.90
2019-03-23T10:29:48.246Z,80.90
2019-03-23T10:32:19.094Z,80.00
2019-03-23T10:34:50.029Z,80.90
2019-03-23T10:37:20.903Z,80.50
2019-03-23T10:39:51.786Z,80.00
2019-03-23T10:42:22.641Z,79.90
2019-03-23T10:44:53.554Z,79.90
2019-03-23T10:47:24.498Z,80.10
2019-03-23T10:49:55.434Z,79.80
2019-03-23T10:52:26.992Z,79.90
2019-03-23T10:54:57.910Z,79.50
2019-03-23T10:57:28.888Z,79.90
2019-03-23T11:00:02.791Z,79.60
2019-03-23T11:02:33.611Z,80.60
2019-03-23T11:05:04.505Z,80.50
2019-03-23T11:07:35.405Z,80.70
2019-03-23T11:10:06.843Z,79.70
2019-03-23T11:12:37.753Z,80.00
2019-03-23T11:15:08.790Z,78.70
2019-03-23T11:17:40.017Z,77.90
2019-03-23T11:20:11.107Z,78.10
2019-03-23T11:22:42.041Z,77.20
2019-03-23T11:25:13.058Z,77.20
2019-03-23T11:27:43.982Z,77.30
2019-03-23T11:30:14.925Z,76.60
2019-03-23T11:32:45.825Z,76.10
2019-03-23T11:35:16.746Z,75.30
2019-03-23T11:37:47.906Z,76.50
2019-03-23T11:40:18.928Z,76.20
2019-03-23T11:42:50.537Z,75.70
2019-03-23T11:45:21.426Z,75.40
2019-03-23T11:47:52.267Z,76.30
2019-03-23T11:50:23.097Z,75.70
2019-03-23T11:52:53.978Z,75.90
2019-03-23T11:55:24.836Z,75.90
2019-03-23T11:57:55.732Z,76.60
2019-03-23T12:00:26.585Z,77.40
2019-03-23T12:02:57.438Z,76.20
2019-03-23T12:05:28.296Z,76.40
2019-03-23T12:07:59.267Z,75.80
2019-03-23T12:10:30.094Z,76.50
2019-03-23T12:13:01.014Z,76.80
2019-03-23T12:15:31.851Z,76.60
2019-03-23T12:18:02.726Z,77.40
2019-03-23T12:20:33.579Z,75.90
2019-03-23T12:23:04.528Z,75.70
2019-03-23T12:25:35.407Z,76.30
2019-03-23T12:28:06.287Z,75.90
2019-03-23T12:30:37.380Z,75.70
2019-03-23T12:33:08.290Z,75.90
2019-03-23T12:35:39.564Z,76.30
2019-03-23T12:38:10.442Z,75.90
2019-03-23T12:40:41.982Z,76.00
2019-03-23T12:43:12.835Z,76.30
2019-03-23T12:45:43.685Z,76.10
2019-03-23T12:48:14.718Z,76.10
2019-03-23T12:50:45.575Z,75.50
2019-03-23T12:53:16.454Z,75.30
2019-03-23T12:55:47.438Z,76.20
2019-03-23T12:58:18.565Z,76.30
2019-03-23T13:00:49.544Z,76.10
2019-03-23T13:03:20.474Z,76.20
2019-03-23T13:05:51.370Z,75.80
2019-03-23T13:08:22.593Z,75.50
2019-03-23T13:10:53.613Z,74.80
2019-03-23T13:13:24.481Z,75.50
2019-03-23T13:15:55.575Z,74.50
2019-03-23T13:18:27.308Z,72.80
2019-03-23T13:20:58.661Z,73.40
2019-03-23T13:23:29.689Z,74.00
2019-03-23T13:26:00.612Z,74.10
2019-03-23T13:28:32.884Z,74.10
2019-03-23T13:31:04.377Z,74.60
2019-03-23T13:33:37.430Z,74.70
2019-03-23T13:36:08.727Z,74.50
2019-03-23T13:38:40.054Z,73.80
2019-03-23T13:41:11.090Z,72.90
2019-03-23T13:43:45.507Z,74.20
2019-03-23T13:46:16.576Z,74.10
2019-03-23T13:48:47.642Z,76.00
2019-03-23T13:51:19.925Z,75.60
2019-03-23T13:53:53.998Z,74.80
2019-03-23T13:56:24.866Z,73.60
2019-03-23T13:58:56.196Z,74.00
2019-03-23T14:01:27.324Z,74.10
2019-03-23T14:03:58.293Z,74.80
2019-03-23T14:06:29.251Z,74.90
2019-03-23T14:09:00.099Z,75.10
2019-03-23T14:11:30.960Z,74.70
2019-03-23T14:14:01.908Z,75.40
2019-03-23T14:16:32.754Z,75.00
2019-03-23T14:19:05.680Z,75.40
2019-03-23T14:21:36.647Z,75.90
2019-03-23T14:24:09.995Z,76.20
2019-03-23T14:26:44.972Z,75.70
2019-03-23T14:29:16.117Z,74.90
2019-03-23T14:31:47.150Z,74.40
2019-03-23T14:34:17.988Z,74.80
2019-03-23T14:36:48.846Z,74.10
2019-03-23T14:39:19.758Z,75.10
2019-03-23T14:41:50.706Z,74.80
2019-03-23T14:44:21.816Z,75.30
2019-03-23T14:46:52.685Z,76.10
2019-03-23T14:49:23.678Z,75.70
2019-03-23T14:51:54.529Z,75.60
2019-03-23T14:54:25.477Z,75.40
2019-03-23T14:56:57.318Z,75.70
2019-03-23T14:59:28.229Z,74.70
2019-03-23T15:01:59.126Z,74.70
2019-03-23T15:04:30.039Z,74.30
2019-03-23T15:07:00.844Z,74.40
2019-03-23T15:09:31.780Z,74.10
2019-03-23T15:12:02.633Z,74.70
2019-03-23T15:14:33.501Z,74.30
2019-03-23T15:17:04.376Z,73.70
2019-03-23T15:19:35.265Z,74.00
2019-03-23T15:22:06.134Z,73.90
2019-03-23T15:24:37.039Z,74.00
2019-03-23T15:27:08.654Z,73.50
2019-03-23T15:29:39.595Z,73.50
2019-03-23T15:32:10.895Z,72.90
2019-03-23T15:34:41.741Z,73.00
2019-03-23T15:37:12.593Z,73.40
2019-03-23T15:39:43.678Z,73.20
2019-03-23T15:42:24.291Z,72.90
2019-03-23T15:44:47.172Z,72.70
2019-03-23T15:47:18.112Z,72.80
2019-03-23T15:49:48.980Z,73.10
2019-03-23T15:52:19.919Z,73.80
2019-03-23T15:54:50.770Z,73.90
2019-03-23T15:57:21.706Z,73.80
2019-03-23T15:59:52.576Z,73.80
2019-03-23T16:02:23.902Z,73.90
2019-03-23T16:04:54.797Z,73.90
2019-03-23T16:07:29.791Z,73.90
2019-03-23T16:09:59.379Z,73.80
2019-03-23T16:12:34.778Z,73.60
2019-03-23T16:15:06.766Z,73.60
2019-03-23T16:17:37.729Z,73.90
2019-03-23T16:20:09.884Z,74.30
2019-03-23T16:22:41.008Z,73.40
2019-03-23T16:25:11.965Z,73.90
2019-03-23T16:27:42.870Z,73.70
2019-03-23T16:30:14.461Z,73.80
2019-03-23T16:32:45.344Z,74.30
2019-03-23T16:35:16.208Z,74.60
2019-03-23T16:37:47.038Z,74.60
2019-03-23T16:40:19.986Z,74.80
2019-03-23T16:42:53.630Z,74.90
2019-03-23T16:45:25.656Z,75.50
2019-03-23T16:47:56.574Z,76.10
2019-03-23T16:50:27.470Z,76.00
2019-03-23T16:52:58.461Z,76.10
2019-03-23T16:55:34.782Z,75.70
2019-03-23T16:58:05.015Z,75.60
2019-03-23T17:00:37.418Z,75.70
2019-03-23T17:03:08.255Z,76.00
2019-03-23T17:05:39.561Z,76.30
2019-03-23T17:08:10.579Z,76.30
2019-03-23T17:10:41.795Z,76.40
2019-03-23T17:13:12.644Z,76.40
2019-03-23T17:15:43.589Z,76.40
2019-03-23T17:18:14.585Z,76.60
2019-03-23T17:20:45.462Z,76.90
2019-03-23T17:23:16.389Z,76.90
2019-03-23T17:25:47.284Z,77.30
2019-03-23T17:28:19.343Z,77.20
2019-03-23T17:30:54.187Z,77.40
2019-03-23T17:33:24.747Z,77.80
2019-03-23T17:35:55.682Z,78.00
2019-03-23T17:38:26.538Z,78.30
2019-03-23T17:40:57.460Z,78.50
2019-03-23T17:43:28.341Z,78.70
2019-03-23T17:45:59.224Z,78.90
2019-03-23T17:48:30.066Z,79.10
2019-03-23T17:51:00.997Z,79.40
2019-03-23T17:53:31.864Z,79.60
2019-03-23T17:56:02.719Z,79.80
2019-03-23T17:58:33.613Z,80.00
2019-03-23T18:01:05.039Z,80.00
2019-03-23T18:03:36.030Z,80.40
2019-03-23T18:06:06.972Z,80.50
2019-03-23T18:08:38.432Z,80.80
2019-03-23T18:11:09.353Z,81.30
2019-03-23T18:13:40.764Z,81.70
2019-03-23T18:16:11.646Z,81.90
2019-03-23T18:18:42.619Z,81.80
2019-03-23T18:21:14.053Z,82.00
2019-03-23T18:23:46.058Z,82.30
2019-03-23T18:26:18.518Z,82.50
2019-03-23T18:28:49.362Z,82.80
2019-03-23T18:31:20.253Z,83.00
2019-03-23T18:33:52.451Z,83.20
2019-03-23T18:36:23.642Z,83.30
2019-03-23T18:38:54.733Z,83.40
2019-03-23T18:41:27.241Z,83.90
2019-03-23T18:44:00.341Z,84.00
2019-03-23T18:46:30.859Z,84.20
2019-03-23T18:49:01.779Z,84.50
2019-03-23T18:51:32.732Z,84.70
2019-03-23T18:54:03.678Z,84.90
2019-03-23T18:56:34.533Z,85.10
2019-03-23T18:59:05.371Z,85.20
2019-03-23T19:01:36.219Z,85.50
2019-03-23T19:04:07.062Z,85.70
2019-03-23T19:06:38.094Z,85.80
2019-03-23T19:09:09.319Z,86.10
2019-03-23T19:11:40.191Z,86.30
2019-03-23T19:14:12.321Z,86.30
2019-03-23T19:16:43.282Z,86.50
2019-03-23T19:19:14.172Z,86.80
2019-03-23T19:21:45.042Z,87.00
2019-03-23T19:24:15.941Z,87.20
2019-03-23T19:26:46.901Z,87.40
2019-03-23T19:29:17.763Z,87.50
2019-03-23T19:31:48.774Z,87.50
2019-03-23T19:34:19.618Z,87.60
2019-03-23T19:36:50.573Z,87.70
2019-03-23T19:39:21.423Z,88.00
2019-03-23T19:41:52.328Z,88.20
2019-03-23T19:44:23.371Z,88.50
2019-03-23T19:46:54.217Z,88.70
2019-03-23T19:49:25.053Z,88.70
2019-03-23T19:51:55.968Z,88.90
2019-03-23T19:54:26.818Z,89.30
2019-03-23T19:56:57.684Z,89.40
2019-03-23T19:59:28.627Z,89.60
2019-03-23T20:01:59.478Z,89.90
2019-03-23T20:04:30.509Z,89.90
2019-03-23T20:07:01.385Z,90.00
2019-03-23T20:09:32.336Z,90.10
2019-03-23T20:12:03.243Z,90.10
2019-03-23T20:14:34.655Z,90.10
2019-03-23T20:17:05.518Z,90.20
2019-03-23T20:19:36.805Z,90.30
2019-03-23T20:22:07.856Z,90.30
2019-03-23T20:24:39.820Z,90.30
2019-03-23T20:27:10.683Z,90.50
2019-03-23T20:29:41.929Z,90.60
2019-03-23T20:32:12.777Z,90.60
2019-03-23T20:34:44.078Z,90.60
2019-03-23T20:37:14.994Z,90.70
2019-03-23T20:39:45.913Z,90.60
2019-03-23T20:42:16.938Z,90.70
2019-03-23T20:44:47.773Z,90.80
2019-03-23T20:47:18.849Z,91.40
2019-03-23T20:49:49.814Z,91.60
2019-03-23T20:52:20.822Z,91.60
2019-03-23T20:54:52.139Z,91.60
2019-03-23T20:57:24.480Z,91.60
2019-03-23T20:59:57.446Z,91.70
2019-03-23T21:02:28.416Z,91.70
2019-03-23T21:05:00.054Z,91.80
2019-03-23T21:07:31.015Z,91.90
2019-03-23T21:10:01.807Z,91.90
2019-03-23T21:12:32.753Z,91.90
2019-03-23T21:15:04.118Z,92.00
2019-03-23T21:17:35.047Z,92.10
2019-03-23T21:20:06.593Z,92.20
2019-03-23T21:22:37.183Z,92.10
2019-03-23T21:25:09.189Z,92.30
2019-03-23T21:27:41.124Z,92.30
2019-03-23T21:30:13.761Z,92.40
2019-03-23T21:32:44.648Z,92.40
2019-03-23T21:35:15.902Z,92.50
2019-03-23T21:37:47.404Z,92.90
2019-03-23T21:40:18.311Z,92.60
2019-03-23T21:42:49.479Z,92.70
2019-03-23T21:45:20.332Z,92.70
2019-03-23T21:47:51.301Z,92.80
2019-03-23T21:50:22.147Z,92.80
2019-03-23T21:52:53.021Z,92.90
2019-03-23T21:55:23.929Z,92.90
2019-03-23T21:57:54.852Z,92.90
2019-03-23T22:00:31.637Z,93.10
2019-03-23T22:03:02.518Z,93.00
2019-03-23T22:05:33.463Z,93.10
2019-03-23T22:08:04.452Z,93.20
2019-03-23T22:10:35.395Z,93.30
2019-03-23T22:13:06.270Z,93.20
2019-03-23T22:15:37.263Z,93.20
2019-03-23T22:18:08.134Z,93.40
2019-03-23T22:20:39.482Z,93.40
2019-03-23T22:23:10.354Z,93.50
2019-03-23T22:25:41.821Z,93.60
2019-03-23T22:28:15.857Z,93.70
2019-03-23T22:30:46.775Z,93.80
2019-03-23T22:33:17.693Z,93.90
2019-03-23T22:35:48.641Z,94.00
2019-03-23T22:38:19.497Z,94.00
2019-03-23T22:40:50.331Z,94.20
2019-03-23T22:43:21.209Z,94.20
2019-03-23T22:45:52.053Z,94.40
2019-03-23T22:48:22.930Z,94.40
2019-03-23T22:50:53.810Z,94.50
2019-03-23T22:53:24.769Z,94.50
2019-03-23T22:55:55.609Z,94.60
2019-03-23T22:58:26.552Z,94.70
2019-03-23T23:00:57.480Z,94.80
2019-03-23T23:03:28.364Z,94.90
2019-03-23T23:05:59.207Z,94.90
2019-03-23T23:08:30.081Z,95.10
2019-03-23T23:11:01.097Z,95.20
2019-03-23T23:13:32.034Z,95.30
2019-03-23T23:16:02.973Z,95.50
2019-03-23T23:18:34.019Z,95.70
2019-03-23T23:21:04.901Z,95.70
2019-03-23T23:23:35.790Z,95.70
2019-03-23T23:26:06.758Z,95.80
2019-03-23T23:28:37.849Z,95.90
2019-03-23T23:31:08.765Z,95.90
2019-03-23T23:33:39.700Z,96.00
2019-03-23T23:36:10.537Z,96.00
2019-03-23T23:38:41.878Z,96.10
2019-03-23T23:41:13.147Z,96.10
2019-03-23T23:43:44.119Z,96.20
2019-03-23T23:46:14.964Z,96.20
2019-03-23T23:48:51.183Z,96.30
2019-03-23T23:51:18.417Z,96.40
2019-03-23T23:53:49.334Z,96.50
2019-03-23T23:56:20.189Z,96.50
2019-03-23T23:58:51.057Z,96.70
